Weather observations for the past three days for
Bismarck, Bismarck Municipal Airport
Imperial (Metric)
Date Time (cdt) Wind (mph) Vis. (mi.) Weather Sky Cond. Temperature (ºF) Relative Humidity Wind Chill (°F) Heat Index (°F) Pressure Precipitation (in)
Air Dwpt 6 hour altimeter (in) sea level (mb) 1 hr 3 hr 6 hr
Max. Min.
09 17:52 NW 7 10.00 Fair CLR 61 23 23% 29.97 1015.7
09 16:52 NW 21 G 28 10.00 Fair and Breezy CLR 60.1 25 26% 29.98 1015.8
09 15:52 W 8 G 24 10.00 Fair CLR 59 24.1 26% 29.98 1015.8
09 14:52 NW 18 G 24 10.00 Fair CLR 59 24.1 26% 29.99 1016.0
09 13:52 Vrbl 7 G 17 10.00 Fair CLR 55.9 26.1 32% 29.99 1016.2
09 12:52 Calm 10.00 Fair CLR 54 26.1 55.9 39.9 34% 30 1016.4
09 11:52 N 8 G 18 10.00 Fair CLR 53.1 28 38% 29.99 1016.0
09 10:52 NW 7 10.00 Fair CLR 51.1 28.9 43% 29.98 1015.8
09 09:52 Vrbl 6 10.00 Fair CLR 46.9 32 56% 45 29.97 1015.2
09 08:52 Calm 10.00 A Few Clouds FEW019 44.1 33.1 65% 29.95 1014.5
09 07:52 NW 7 10.00 Fair CLR 42.1 36 79% 38 29.92 1013.4
09 06:52 NW 8 10.00 Fair CLR 39.9 36 48.9 37.9 86% 35 29.88 1012.1
09 05:52 NW 7 10.00 Fair CLR 39 36 89% 35 29.85 1011.1
09 04:52 NW 8 10.00 Fair CLR 42.1 37 82% 38 29.83 1010.5
09 03:52 N 10 10.00 Fair CLR 44.1 39 83% 39 29.81 1009.6
09 02:52 N 10 10.00 Fair CLR 46.9 39.9 77% 43 29.79 1008.7
09 01:52 NW 9 10.00 A Few Clouds FEW095 FEW120 48.9 44.1 83% 45 29.77 1007.9
09 00:52 W 7 10.00 Light Rain FEW055 OVC080 48 44.1 70 48 86% 45 29.75 1007.7 0.02 0.02
08 23:52 N 7 10.00 Light Rain BKN060 OVC080 50 43 77% 48 29.78 1008.4
08 22:52 NE 21 G 36 10.00 Light Rain and Breezy SCT080 OVC110 52 37.9 59% 29.73 1007.0
08 21:52 N 17 G 26 10.00 Partly Cloudy SCT100 60.1 37 42% 29.69 1005.3
08 20:52 W 20 G 28 10.00 Overcast OVC100 68 28 22% 29.64 1003.6
08 19:52 W 10 10.00 A Few Clouds FEW120 69.1 27 21% 29.65 1004.0
08 18:52 W 18 G 28 10.00 Overcast OVC110 70 25 72 66.9 18% 29.66 1004.9
08 17:52 W 14 G 24 10.00 A Few Clouds FEW110 72 27 19% 29.69 1005.5
08 16:52 NW 17 G 30 10.00 Partly Cloudy SCT100 72 28 19% 29.72 1006.6
08 15:52 NW 16 G 25 10.00 Mostly Cloudy BKN100 70 30 23% 29.74 1007.6
08 14:52 NW 12 G 29 10.00 A Few Clouds FEW095 71.1 28.9 21% 29.76 1007.9
08 13:52 N 18 G 32 10.00 Fair CLR 69.1 28.9 22% 29.77 1008.1
08 12:52 N 18 G 30 10.00 Fair CLR 66.9 27 66.9 35.1 22% 29.78 1008.5
08 11:52 NW 24 G 35 10.00 Fair and Breezy CLR 64.9 28 25% 29.79 1008.7
08 10:52 NW 16 G 29 10.00 Fair CLR 62.1 28 28% 29.79 1008.7
08 09:52 NW 13 G 22 10.00 Fair CLR 59 26.1 28% 29.78 1008.6
08 08:52 W 8 10.00 Fair CLR 51.1 27 39% 29.77 1008.4
08 07:52 W 3 10.00 Fair CLR 42.1 30 62% 29.75 1007.9
08 06:52 SE 3 10.00 Mostly Cloudy FEW090 BKN110 35.1 28 48.9 35.1 76% 29.75 1008.0
08 05:52 Calm 10.00 Mostly Cloudy BKN110 37 27 67% 29.75 1008.0
08 04:52 Calm 10.00 Overcast OVC100 39.9 27 60% 29.76 1008.1
08 03:52 Calm 10.00 Mostly Cloudy BKN120 37.9 27 65% 29.75 1008.1
08 02:52 Calm 10.00 Partly Cloudy SCT120 39.9 27 60% 29.77 1008.5
08 01:52 Calm 10.00 Mostly Cloudy BKN110 48 21.9 36% 29.77 1008.6
08 00:52 Calm 10.00 Overcast OVC100 48 24.1 63 48 39% 29.78 1008.9
07 23:52 Vrbl 3 10.00 Overcast OVC110 51.1 19.9 29% 29.79 1009.2
07 22:52 Calm 10.00 Overcast OVC100 53.1 23 31% 29.8 1009.5
07 21:52 NW 5 10.00 A Few Clouds FEW120 55.9 18 22% 29.79 1009.3
07 20:52 N 6 10.00 Fair CLR 57.9 18 21% 29.77 1008.9
07 19:52 NW 7 10.00 Fair CLR 61 17.1 18% 29.76 1008.6
07 18:52 N 6 10.00 Fair CLR 63 16 64.9 57 16% 29.76 1008.9
07 17:52 W 10 G 23 10.00 Fair CLR 64 17.1 16% 29.77 1009.0
07 16:52 NW 12 G 23 10.00 Fair CLR 64.9 18 16% 29.78 1009.3
07 15:52 W 15 G 20 10.00 Fair CLR 63 14 15% 29.8 1009.9
07 14:52 W 7 G 21 10.00 Fair CLR 62.1 15.1 16% 29.81 1010.5
07 13:52 Vrbl 5 G 21 10.00 Fair CLR 60.1 16 18% 29.82 1010.7
07 12:52 W 8 10.00 Fair CLR 57.9 19 57.9 23 22% 29.84 1011.4
07 11:52 Calm 10.00 Fair CLR 54 21 28% 29.86 1012.2
07 10:52 W 5 10.00 Fair CLR 50 25 38% 49 29.88 1013.0
07 09:52 Vrbl 3 10.00 Fair CLR 44.1 24.1 45% 29.89 1013.3
07 08:52 Calm 10.00 Fair CLR 37 24.1 59% 29.89 1013.3
07 07:52 Calm 10.00 Fair CLR 30.9 23 72% 29.88 1013.2
07 06:52 Calm 10.00 Fair CLR 24.1 19 34 21.9 81% 29.87 1012.9
07 05:52 Calm 10.00 Fair CLR 24.1 19 81% 29.87 1012.8
07 04:52 NE 5 10.00 Fair CLR 24.1 19 81% 19 29.87 1012.9
07 03:52 Calm 10.00 Fair CLR 30 19.9 66% 29.87 1012.7
07 02:52 E 3 10.00 Fair CLR 28.9 21 72% 29.87 1012.7
07 01:52 Calm 10.00 Fair CLR 28.9 19.9 69% 29.87 1012.9
07 00:52 NE 6 10.00 Fair CLR 33.1 21 53.1 30.9 61% 28 29.87 1013.0
06 23:52 Calm 10.00 Fair CLR 33.1 21 61% 29.88 1013.3
06 22:52 E 7 10.00 Fair CLR 36 21 55% 31 29.89 1013.5
06 21:52 E 5 10.00 Fair CLR 43 19 38% 41 29.89 1013.5
06 20:52 NE 6 10.00 Fair CLR 46.9 18 31% 45 29.89 1013.5
06 19:52 NW 12 10.00 Fair CLR 51.1 18 27% 29.9 1013.6
06 18:52 NW 9 10.00 Partly Cloudy FEW080 SCT095 53.1 18 54 45 25% 29.9 1013.9
Date Time (cdt) Wind (mph) Vis. (mi.) Weather Sky Cond. Air Dwpt Max. Min. Relative Humidity Wind Chill (°F) Heat Index (°F) altimeter (in) sea level (mb) 1 hr 3 hr 6 hr
6 hour
Temperature (ºF) Pressure Precipitation (in)